Date,TemperatureHighF,TemperatureAvgF,TemperatureLowF,DewpointHighF,DewpointAvgF,DewpointLowF,HumidityHigh,HumidityAvg,HumidityLow,PressureMaxIn,PressureMinIn,WindSpeedMaxMPH,WindSpeedAvgMPH,GustSpeedMaxMPH,PrecipitationSumIn
2013-1-1,70,57,48,-100,-100,-100,0,0,100,0.00,40.00,0,-999,0,0.00
2013-1-2,46,41,40,-100,-100,-100,0,0,100,0.00,40.00,0,-999,0,0.00
2013-1-3,49,44,40,-100,-100,-100,0,0,100,0.00,40.00,0,-999,0,0.00
2013-1-4,50,47,43,-100,-100,-100,0,0,100,0.00,40.00,0,-999,0,0.00
2013-1-5,47,45,42,-100,-100,-100,0,0,100,0.00,40.00,0,-999,0,0.00
2013-1-6,58,46,40,-100,-100,-100,0,0,100,0.00,40.00,0,-999,0,0.00
2013-1-7,62,50,36,-100,-100,-100,0,0,100,0.00,40.00,0,-999,0,0.00
2013-1-8,71,62,52,-100,-100,-100,0,0,100,0.00,40.00,0,-999,0,0.00
2013-1-9,69,65,60,-100,-100,-100,0,0,100,0.00,40.00,0,-999,0,0.00
2013-1-10,70,60,51,-100,-100,-100,0,0,100,0.00,40.00,0,-999,0,0.00
2013-1-11,73,61,47,-100,-100,-100,0,0,100,0.00,40.00,0,-999,0,0.00
2013-1-12,74,72,69,-100,-100,-100,0,0,100,0.00,40.00,0,-999,0,0.00
2013-1-13,73,49,41,-100,-100,-100,0,0,100,0.00,40.00,0,-999,0,0.00
2013-1-14,46,43,37,-100,-100,-100,0,0,100,0.00,40.00,0,-999,0,0.00
2013-1-15,44,40,36,-100,-100,-100,0,0,100,0.00,40.00,0,-999,0,0.00
2013-1-16,53,43,36,-100,-100,-100,0,0,100,0.00,40.00,0,-999,0,0.00
2013-1-17,63,49,32,-100,-100,-100,0,0,100,0.00,40.00,0,-999,0,0.00
2013-1-18,67,51,36,-100,-100,-100,0,0,100,0.00,40.00,0,-999,0,0.00
2013-1-19,72,53,42,-100,-100,-100,0,0,100,0.00,40.00,0,-999,0,0.00
2013-1-20,77,58,43,-100,-100,-100,0,0,100,0.00,40.00,0,-999,0,0.00
2013-1-21,76,59,47,-100,-100,-100,0,0,100,0.00,40.00,0,-999,0,0.00
2013-1-22,76,59,45,-100,-100,-100,0,0,100,0.00,40.00,0,-999,0,0.00
2013-1-23,78,61,49,-100,-100,-100,0,0,100,0.00,40.00,0,-999,0,0.00
2013-1-24,80,70,59,-100,-100,-100,0,0,100,0.00,40.00,0,-999,0,0.00
2013-1-25,80,70,64,-100,-100,-100,0,0,100,0.00,40.00,0,-999,0,0.00
2013-1-26,80,70,62,-100,-100,-100,0,0,100,0.00,40.00,0,-999,0,0.00
2013-1-27,77,70,61,-100,-100,-100,0,0,100,0.00,40.00,0,-999,0,0.00
2013-1-28,80,74,70,-100,-100,-100,0,0,100,0.00,40.00,0,-999,0,0.00
2013-1-29,78,74,62,-100,-100,-100,0,0,100,0.00,40.00,0,-999,0,0.00
2013-1-30,63,58,44,-100,-100,-100,0,0,100,0.00,40.00,0,-999,0,0.00
2013-1-31,69,60,40,-100,-100,-100,0,0,100,0.00,40.00,0,-999,0,0.00
2013-2-1,73,60,48,-100,-100,-100,0,0,100,0.00,40.00,0,-999,0,0.00
2013-2-2,80,62,50,-100,-100,-100,0,0,100,0.00,40.00,0,-999,0,0.00
2013-2-3,78,63,52,-100,-100,-100,0,0,100,0.00,40.00,0,-999,0,0.00
2013-2-4,77,65,56,-100,-100,-100,0,0,100,0.00,40.00,0,-999,0,0.00
2013-2-5,81,67,58,-100,-100,-100,0,0,100,0.00,40.00,0,-999,0,0.00
2013-2-6,69,65,60,-100,-100,-100,0,0,100,0.00,40.00,0,-999,0,0.00
2013-2-7,71,64,57,-100,-100,-100,0,0,100,0.00,40.00,0,-999,0,0.00
2013-2-8,69,61,54,-100,-100,-100,0,0,100,0.00,40.00,0,-999,0,0.00
2013-2-9,71,63,54,-100,-100,-100,0,0,100,0.00,40.00,0,-999,0,0.00
2013-2-10,73,67,63,-100,-100,-100,0,0,100,0.00,40.00,0,-999,0,0.00
2013-2-11,62,58,55,-100,-100,-100,0,0,100,0.00,40.00,0,-999,0,0.00
2013-2-12,65,60,56,-100,-100,-100,0,0,100,0.00,40.00,0,-999,0,0.00
2013-2-13,59,53,45,-100,-100,-100,0,0,100,0.00,40.00,0,-999,0,0.00
2013-2-14,70,53,37,-100,-100,-100,0,0,100,0.00,40.00,0,-999,0,0.00
2013-2-15,67,54,43,-100,-100,-100,0,0,100,0.00,40.00,0,-999,0,0.00
2013-2-16,65,52,40,-100,-100,-100,0,0,100,0.00,40.00,0,-999,0,0.00
2013-2-17,73,60,41,-100,-100,-100,0,0,100,0.00,40.00,0,-999,0,0.00
2013-2-18,75,69,65,-100,-100,-100,0,0,100,0.00,40.00,0,-999,0,0.00
2013-2-19,73,60,51,-100,-100,-100,0,0,100,0.00,40.00,0,-999,0,0.00
2013-2-20,71,62,52,-100,-100,-100,0,0,100,0.00,40.00,0,-999,0,0.00
2013-2-21,80,69,60,-100,-100,-100,0,0,100,0.00,40.00,0,-999,0,0.00
2013-2-22,65,60,57,-100,-100,-100,0,0,100,0.00,40.00,0,-999,0,0.00
2013-2-23,67,56,47,-100,-100,-100,0,0,100,0.00,40.00,0,-999,0,0.00
2013-2-24,71,58,44,-100,-100,-100,0,0,100,0.00,40.00,0,-999,0,0.00
2013-2-25,73,64,51,-100,-100,-100,0,0,100,0.00,40.00,0,-999,0,0.00
2013-2-26,69,54,40,-100,-100,-100,0,0,100,0.00,40.00,0,-999,0,0.00
2013-2-27,72,57,47,-100,-100,-100,0,0,100,0.00,40.00,0,-999,0,0.00
2013-2-28,58,49,43,-100,-100,-100,0,0,100,0.00,40.00,0,-999,0,0.00
2013-3-1,69,53,37,-100,-100,-100,0,0,100,0.00,40.00,0,-999,0,0.00
2013-3-2,60,48,40,-100,-100,-100,0,0,100,0.00,40.00,0,-999,0,0.00
2013-3-3,73,57,38,-100,-100,-100,0,0,100,0.00,40.00,0,-999,0,0.00
2013-3-4,78,67,59,-100,-100,-100,0,0,100,0.00,40.00,0,-999,0,0.00
2013-3-5,69,62,52,-100,-100,-100,0,0,100,0.00,40.00,0,-999,0,0.00
2013-3-6,69,52,37,-100,-100,-100,0,0,100,0.00,40.00,0,-999,0,0.00
2013-3-7,75,58,42,-100,-100,-100,0,0,100,0.00,40.00,0,-999,0,0.00
2013-3-8,74,64,55,-100,-100,-100,0,0,100,0.00,40.00,0,-999,0,0.00
2013-3-9,80,70,66,-100,-100,-100,0,0,100,0.00,40.00,0,-999,0,0.00
2013-3-10,72,66,54,-100,-100,-100,0,0,100,0.00,40.00,0,-999,0,0.00
2013-3-11,66,55,47,-100,-100,-100,0,0,100,0.00,40.00,0,-999,0,0.00
2013-3-12,78,58,39,-100,-100,-100,0,0,100,0.00,40.00,0,-999,0,0.00
2013-3-13,76,58,46,-100,-100,-100,0,0,100,0.00,40.00,0,-999,0,0.00
2013-3-14,77,62,43,-100,-100,-100,0,0,100,0.00,40.00,0,-999,0,0.00
2013-3-15,81,62,51,-100,-100,-100,0,0,100,0.00,40.00,0,-999,0,0.00
2013-3-16,80,68,59,-100,-100,-100,0,0,100,0.00,40.00,0,-999,0,0.00
2013-3-17,83,73,65,-100,-100,-100,0,0,100,0.00,40.00,0,-999,0,0.00
2013-3-18,89,76,68,-100,-100,-100,0,0,100,0.00,40.00,0,-999,0,0.00
2013-3-19,84,70,58,-100,-100,-100,0,0,100,0.00,40.00,0,-999,0,0.00
2013-3-20,76,66,58,-100,-100,-100,0,0,100,0.00,40.00,0,-999,0,0.00
2013-3-21,76,65,53,-100,-100,-100,0,0,100,0.00,40.00,0,-999,0,0.00
2013-3-22,79,74,69,-100,-100,-100,0,0,100,0.00,40.00,0,-999,0,0.00
2013-3-23,78,71,61,-100,-100,-100,0,0,100,0.00,40.00,0,-999,0,0.00
2013-3-24,63,59,47,-100,-100,-100,0,0,100,0.00,40.00,0,-999,0,0.00
2013-3-25,62,51,39,-100,-100,-100,0,0,100,0.00,40.00,0,-999,0,0.00
2013-3-26,64,50,35,-100,-100,-100,0,0,100,0.00,40.00,0,-999,0,0.00
2013-3-27,73,58,43,-100,-100,-100,0,0,100,0.00,40.00,0,-999,0,0.00
2013-3-28,78,69,64,-100,-100,-100,0,0,100,0.00,40.00,0,-999,0,0.00
2013-3-29,82,68,56,-100,-100,-100,0,0,100,0.00,40.00,0,-999,0,0.00
2013-3-30,84,72,60,-100,-100,-100,0,0,100,0.00,40.00,0,-999,0,0.00
2013-3-31,85,75,69,-100,-100,-100,0,0,100,0.00,40.00,0,-999,0,0.00
2013-4-1,91,73,64,-100,-100,-100,0,0,100,0.00,40.00,0,-999,0,0.00
2013-4-2,84,74,65,-100,-100,-100,0,0,100,0.00,40.00,0,-999,0,0.00
2013-4-3,67,62,54,-100,-100,-100,0,0,100,0.00,40.00,0,-999,0,0.00
2013-4-4,61,54,47,-100,-100,-100,0,0,100,0.00,40.00,0,-999,0,0.00
2013-4-5,77,58,41,-100,-100,-100,0,0,100,0.00,40.00,0,-999,0,0.00
2013-4-6,80,67,51,-100,-100,-100,0,0,100,0.00,40.00,0,-999,0,0.00
2013-4-7,80,71,65,-100,-100,-100,0,0,100,0.00,40.00,0,-999,0,0.00
2013-4-8,81,74,69,-100,-100,-100,0,0,100,0.00,40.00,0,-999,0,0.00
2013-4-9,84,75,69,-100,-100,-100,0,0,100,0.00,40.00,0,-999,0,0.00
2013-4-10,81,65,51,-100,-100,-100,0,0,100,0.00,40.00,0,-999,0,0.00
2013-4-11,72,56,44,-100,-100,-100,0,0,100,0.00,40.00,0,-999,0,0.00
2013-4-12,83,65,47,-100,-100,-100,0,0,100,0.00,40.00,0,-999,0,0.00
2013-4-13,81,67,53,-100,-100,-100,0,0,100,0.00,40.00,0,-999,0,0.00
2013-4-14,87,72,58,-100,-100,-100,0,0,100,0.00,40.00,0,-999,0,0.00
2013-4-15,88,77,71,-100,-100,-100,0,0,100,0.00,40.00,0,-999,0,0.00
2013-4-16,86,77,70,-100,-100,-100,0,0,100,0.00,40.00,0,-999,0,0.00
2013-4-17,81,77,74,-100,-100,-100,0,0,100,0.00,40.00,0,-999,0,0.00
2013-4-18,78,67,54,-100,-100,-100,0,0,100,0.00,40.00,0,-999,0,0.00
2013-4-19,69,57,48,-100,-100,-100,0,0,100,0.00,40.00,0,-999,0,0.00
2013-4-20,76,58,42,-100,-100,-100,0,0,100,0.00,40.00,0,-999,0,0.00
2013-4-21,83,65,51,-100,-100,-100,0,0,100,0.00,40.00,0,-999,0,0.00
2013-4-22,88,69,54,-100,-100,-100,0,0,100,0.00,40.00,0,-999,0,0.00
2013-4-23,83,76,67,-100,-100,-100,0,0,100,0.00,40.00,0,-999,0,0.00
2013-4-24,75,60,48,-100,-100,-100,0,0,100,0.00,40.00,0,-999,0,0.00
2013-4-25,66,63,60,-100,-100,-100,0,0,100,0.00,40.00,0,-999,0,0.00
2013-4-26,83,75,66,-100,-100,-100,0,0,100,0.00,40.00,0,-999,0,0.00
2013-4-27,87,77,72,-100,-100,-100,0,0,100,0.00,40.00,0,-999,0,0.00
2013-4-28,83,74,64,-100,-100,-100,0,0,100,0.00,40.00,0,-999,0,0.00
2013-4-29,81,73,69,-100,-100,-100,0,0,100,0.00,40.00,0,-999,0,0.00
2013-4-30,87,78,67,-100,-100,-100,0,0,100,0.00,40.00,0,-999,0,0.00
2013-5-1,91,79,70,-100,-100,-100,0,0,100,0.00,40.00,0,-999,0,0.00
2013-5-2,78,66,51,-100,-100,-100,0,0,100,0.00,40.00,0,-999,0,0.00
2013-5-3,68,56,47,-100,-100,-100,0,0,100,0.00,40.00,0,-999,0,0.00
2013-5-4,86,66,45,-100,-100,-100,0,0,100,0.00,40.00,0,-999,0,0.00
2013-5-5,78,66,53,-100,-100,-100,0,0,100,0.00,40.00,0,-999,0,0.00
2013-5-6,80,67,51,-100,-100,-100,0,0,100,0.00,40.00,0,-999,0,0.00
2013-5-7,89,75,58,-100,-100,-100,0,0,100,0.00,40.00,0,-999,0,0.00
2013-5-8,86,75,61,-100,-100,-100,0,0,100,0.00,40.00,0,-999,0,0.00
2013-5-9,82,78,74,-100,-100,-100,0,0,100,0.00,40.00,0,-999,0,0.00
2013-5-10,88,78,73,-100,-100,-100,0,0,100,0.00,40.00,0,-999,0,0.00
2013-5-11,87,77,68,-100,-100,-100,0,0,100,0.00,40.00,0,-999,0,0.00
2013-5-12,82,74,66,-100,-100,-100,0,0,100,0.00,40.00,0,-999,0,0.00
2013-5-13,90,74,60,-100,-100,-100,0,0,100,0.00,40.00,0,-999,0,0.00
2013-5-14,88,72,62,-100,-100,-100,0,0,100,0.00,40.00,0,-999,0,0.00
2013-5-15,83,76,73,-100,-100,-100,0,0,100,0.00,40.00,0,-999,0,0.00
2013-5-16,87,78,74,-100,-100,-100,0,0,100,0.00,40.00,0,-999,0,0.00
2013-5-17,93,81,75,-100,-100,-100,0,0,100,0.00,40.00,0,-999,0,0.00
2013-5-18,94,83,78,-100,-100,-100,0,0,100,0.00,40.00,0,-999,0,0.00
2013-5-19,92,83,78,-100,-100,-100,0,0,100,0.00,40.00,0,-999,0,0.00
2013-5-20,91,84,79,-100,-100,-100,0,0,100,0.00,40.00,0,-999,0,0.00
2013-5-21,94,84,80,-100,-100,-100,0,0,100,0.00,40.00,0,-999,0,0.00
2013-5-22,98,83,76,-100,-100,-100,0,0,100,0.00,40.00,0,-999,0,0.00
2013-5-23,92,83,75,-100,-100,-100,0,0,100,0.00,40.00,0,-999,0,0.00
2013-5-24,94,83,76,-100,-100,-100,0,0,100,0.00,40.00,0,-999,0,0.00
2013-5-25,87,81,78,-100,-100,-100,0,0,100,0.00,40.00,0,-999,0,0.00
2013-5-26,94,83,73,-100,-100,-100,0,0,100,0.00,40.00,0,-999,0,0.00
2013-5-27,94,84,76,-100,-100,-100,0,0,100,0.00,40.00,0,-999,0,0.00
2013-5-28,92,84,79,-100,-100,-100,0,0,100,0.00,40.00,0,-999,0,0.00
2013-5-29,89,84,80,-100,-100,-100,0,0,100,0.00,40.00,0,-999,0,0.00
2013-5-30,96,86,80,-100,-100,-100,0,0,100,0.00,40.00,0,-999,0,0.00
2013-5-31,98,86,79,-100,-100,-100,0,0,100,0.00,40.00,0,-999,0,0.00
2013-6-1,98,88,81,-100,-100,-100,0,0,100,0.00,40.00,0,-999,0,0.00
2013-6-2,89,80,72,-100,-100,-100,0,0,100,0.00,40.00,0,-999,0,0.00
2013-6-3,96,82,69,-100,-100,-100,0,0,100,0.00,40.00,0,-999,0,0.00
2013-6-4,98,82,69,-100,-100,-100,0,0,100,0.00,40.00,0,-999,0,0.00
2013-6-5,99,82,72,-100,-100,-100,0,0,100,0.00,40.00,0,-999,0,0.00
2013-6-6,103,85,76,-100,-100,-100,0,0,100,0.00,40.00,0,-999,0,0.00
2013-6-7,91,79,73,-100,-100,-100,0,0,100,0.00,40.00,0,-999,0,0.00
2013-6-8,99,81,73,-100,-100,-100,0,0,100,0.00,40.00,0,-999,0,0.00
2013-6-9,88,80,75,-100,-100,-100,0,0,100,0.00,40.00,0,-999,0,0.00
2013-6-10,99,85,73,-100,-100,-100,0,0,100,0.00,40.00,0,-999,0,0.00
2013-6-11,98,84,76,-100,-100,-100,0,0,100,0.00,40.00,0,-999,0,0.00
2013-6-12,100,86,79,-100,-100,-100,0,0,100,0.00,40.00,0,-999,0,0.00
2013-6-13,98,86,80,-100,-100,-100,0,0,100,0.00,40.00,0,-999,0,0.00
2013-6-14,100,86,77,-100,-100,-100,0,0,100,0.00,40.00,0,-999,0,0.00
2013-6-15,99,85,80,-100,-100,-100,0,0,100,0.00,40.00,0,-999,0,0.00
2013-6-16,102,85,79,-100,-100,-100,0,0,100,0.00,40.00,0,-999,0,0.00
2013-6-17,102,87,80,-100,-100,-100,0,0,100,0.00,40.00,0,-999,0,0.00
2013-6-18,102,88,80,-100,-100,-100,0,0,100,0.00,40.00,0,-999,0,0.00
2013-6-19,101,87,80,-100,-100,-100,0,0,100,0.00,40.00,0,-999,0,0.00
2013-6-20,99,84,79,-100,-100,-100,0,0,100,0.00,40.00,0,-999,0,0.00
2013-6-22,99,90,85,-100,-100,-100,0,0,100,0.00,40.00,0,-999,0,0.00
2013-6-23,92,84,79,-100,-100,-100,0,0,100,0.00,40.00,0,-999,0,0.00
2013-6-24,94,84,80,-100,-100,-100,0,0,100,0.00,40.00,0,-999,0,0.00
2013-6-25,98,88,83,-100,-100,-100,0,0,100,0.00,40.00,0,-999,0,0.00
2013-6-26,98,87,82,-100,-100,-100,0,0,100,0.00,40.00,0,-999,0,0.00
2013-6-27,97,84,80,-100,-100,-100,0,0,100,0.00,40.00,0,-999,0,0.00
2013-6-28,104,87,80,-100,-100,-100,0,0,100,0.00,40.00,0,-999,0,0.00
2013-6-29,109,91,80,-100,-100,-100,0,0,100,0.00,40.00,0,-999,0,0.00
2013-6-30,100,90,80,-100,-100,-100,0,0,100,0.00,40.00,0,-999,0,0.00
2013-7-1,98,87,75,-100,-100,-100,0,0,100,0.00,40.00,0,-999,0,0.00
2013-7-2,97,85,74,-100,-100,-100,0,0,100,0.00,40.00,0,-999,0,0.00
2013-7-3,95,80,72,-100,-100,-100,0,0,100,0.00,40.00,0,-999,0,0.00
2013-7-4,98,85,71,-100,-100,-100,0,0,100,0.00,40.00,0,-999,0,0.00
2013-7-5,98,85,72,-100,-100,-100,0,0,100,0.00,40.00,0,-999,0,0.00
2013-7-6,100,83,73,-100,-100,-100,0,0,100,0.00,40.00,0,-999,0,0.00
2013-7-7,93,83,79,-100,-100,-100,0,0,100,0.00,40.00,0,-999,0,0.00
2013-7-8,94,81,76,-100,-100,-100,0,0,100,0.00,40.00,0,-999,0,0.00
2013-7-9,96,85,79,-100,-100,-100,0,0,100,0.00,40.00,0,-999,0,0.00
2013-7-10,95,86,80,-100,-100,-100,0,0,100,0.00,40.00,0,-999,0,0.00
2013-7-11,98,86,79,-100,-100,-100,0,0,100,0.00,40.00,0,-999,0,0.00
2013-7-12,98,84,79,-100,-100,-100,0,0,100,0.00,40.00,0,-999,0,0.00
2013-7-13,99,86,77,-100,-100,-100,0,0,100,0.00,40.00,0,-999,0,0.00
2013-7-14,98,87,80,-100,-100,-100,0,0,100,0.00,40.00,0,-999,0,0.00
2013-7-15,96,86,80,-100,-100,-100,0,0,100,0.00,40.00,0,-999,0,0.00
2013-7-16,91,82,77,-100,-100,-100,0,0,100,0.00,40.00,0,-999,0,0.00
2013-7-17,86,79,76,-100,-100,-100,0,0,100,0.00,40.00,0,-999,0,0.00
2013-7-18,95,84,76,-100,-100,-100,0,0,100,0.00,40.00,0,-999,0,0.00
2013-7-19,94,84,75,-100,-100,-100,0,0,100,0.00,40.00,0,-999,0,0.00
2013-7-20,96,85,76,-100,-100,-100,0,0,100,0.00,40.00,0,-999,0,0.00
2013-7-21,94,83,79,-100,-100,-100,0,0,100,0.00,40.00,0,-999,0,0.00
2013-7-22,95,88,82,-100,-100,-100,0,0,100,0.00,40.00,0,-999,0,0.00
2013-7-23,94,85,82,-100,-100,-100,0,0,100,0.00,40.00,0,-999,0,0.00
2013-7-24,95,86,79,-100,-100,-100,0,0,100,0.00,40.00,0,-999,0,0.00
2013-7-25,101,86,77,-100,-100,-100,0,0,100,0.00,40.00,0,-999,0,0.00
2013-7-26,96,87,81,-100,-100,-100,0,0,100,0.00,40.00,0,-999,0,0.00
2013-7-27,93,86,81,-100,-100,-100,0,0,100,0.00,40.00,0,-999,0,0.00
2013-7-28,97,86,83,-100,-100,-100,0,0,100,0.00,40.00,0,-999,0,0.00
2013-7-29,98,87,82,-100,-100,-100,0,0,100,0.00,40.00,0,-999,0,0.00
2013-7-30,99,86,80,-100,-100,-100,0,0,100,0.00,40.00,0,-999,0,0.00
2013-7-31,101,88,77,-100,-100,-100,0,0,100,0.00,40.00,0,-999,0,0.00
2013-8-1,99,86,80,-100,-100,-100,0,0,100,0.00,40.00,0,-999,0,0.00
2013-8-2,95,86,80,-100,-100,-100,0,0,100,0.00,40.00,0,-999,0,0.00
2013-8-3,101,86,77,-100,-100,-100,0,0,100,0.00,40.00,0,-999,0,0.00
2013-8-4,98,90,83,-100,-100,-100,0,0,100,0.00,40.00,0,-999,0,0.00
2013-8-5,100,86,82,-100,-100,-100,0,0,100,0.00,40.00,0,-999,0,0.00
2013-8-6,97,87,83,-100,-100,-100,0,0,100,0.00,40.00,0,-999,0,0.00
2013-8-7,100,89,83,-100,-100,-100,0,0,100,0.00,40.00,0,-999,0,0.00
2013-8-8,97,86,82,-100,-100,-100,0,0,100,0.00,40.00,0,-999,0,0.00
2013-8-9,102,85,76,-100,-100,-100,0,0,100,0.00,40.00,0,-999,0,0.00
2013-8-10,97,86,79,-100,-100,-100,0,0,100,0.00,40.00,0,-999,0,0.00
2013-8-11,94,86,78,-100,-100,-100,0,0,100,0.00,40.00,0,-999,0,0.00
2013-8-12,96,85,80,-100,-100,-100,0,0,100,0.00,40.00,0,-999,0,0.00
2013-8-13,98,85,81,-100,-100,-100,0,0,100,0.00,40.00,0,-999,0,0.00
2013-8-14,105,87,82,-100,-100,-100,0,0,100,0.00,40.00,0,-999,0,0.00
2013-8-15,101,86,79,-100,-100,-100,0,0,100,0.00,40.00,0,-999,0,0.00
2013-8-16,98,85,75,-100,-100,-100,0,0,100,0.00,40.00,0,-999,0,0.00
2013-8-17,96,84,73,-100,-100,-100,0,0,100,0.00,40.00,0,-999,0,0.00
2013-8-18,98,84,74,-100,-100,-100,0,0,100,0.00,40.00,0,-999,0,0.00
2013-8-19,96,82,73,-100,-100,-100,0,0,100,0.00,40.00,0,-999,0,0.00
2013-8-20,83,80,76,-100,-100,-100,0,0,100,0.00,40.00,0,-999,0,0.00
2013-8-21,94,83,76,-100,-100,-100,0,0,100,0.00,40.00,0,-999,0,0.00
2013-8-22,93,87,81,-100,-100,-100,0,0,100,0.00,40.00,0,-999,0,0.00
2013-8-23,97,86,77,-100,-100,-100,0,0,100,0.00,40.00,0,-999,0,0.00
2013-8-24,98,85,77,-100,-100,-100,0,0,100,0.00,40.00,0,-999,0,0.00
2013-8-25,91,82,77,-100,-100,-100,0,0,100,0.00,40.00,0,-999,0,0.00
2013-8-26,82,78,76,-100,-100,-100,0,0,100,0.00,40.00,0,-999,0,0.00
2013-8-27,87,78,76,-100,-100,-100,0,0,100,0.00,40.00,0,-999,0,0.00
2013-8-28,94,89,80,-100,-100,-100,0,0,100,0.00,40.00,0,-999,0,0.00
2013-8-29,99,86,78,-100,-100,-100,0,0,100,0.00,40.00,0,-999,0,0.00
2013-8-30,99,86,80,-100,-100,-100,0,0,100,0.00,40.00,0,-999,0,0.00
2013-8-31,98,87,80,-100,-100,-100,0,0,100,0.00,40.00,0,-999,0,0.00
2013-9-1,98,87,78,-100,-100,-100,0,0,100,0.00,40.00,0,-999,0,0.00
2013-9-2,96,86,79,-100,-100,-100,0,0,100,0.00,40.00,0,-999,0,0.00
2013-9-3,100,86,77,-100,-100,-100,0,0,100,0.00,40.00,0,-999,0,0.00
2013-9-4,100,88,78,-100,-100,-100,0,0,100,0.00,40.00,0,-999,0,0.00
2013-9-5,92,82,77,-100,-100,-100,0,0,100,0.00,40.00,0,-999,0,0.00
2013-9-6,96,84,76,-100,-100,-100,0,0,100,0.00,40.00,0,-999,0,0.00
2013-9-7,91,80,76,-100,-100,-100,0,0,100,0.00,40.00,0,-999,0,0.00
2013-9-8,93,83,78,-100,-100,-100,0,0,100,0.00,40.00,0,-999,0,0.00
2013-9-9,87,79,75,-100,-100,-100,0,0,100,0.00,40.00,0,-999,0,0.00
2013-9-10,92,83,75,-100,-100,-100,0,0,100,0.00,40.00,0,-999,0,0.00
2013-9-11,92,85,76,-100,-100,-100,0,0,100,0.00,40.00,0,-999,0,0.00
2013-9-12,97,84,75,-100,-100,-100,0,0,100,0.00,40.00,0,-999,0,0.00
2013-9-13,96,82,73,-100,-100,-100,0,0,100,0.00,40.00,0,-999,0,0.00
2013-9-14,95,86,73,-100,-100,-100,0,0,100,0.00,40.00,0,-999,0,0.00
2013-9-15,94,83,77,-100,-100,-100,0,0,100,0.00,40.00,0,-999,0,0.00
2013-9-16,96,86,79,-100,-100,-100,0,0,100,0.00,40.00,0,-999,0,0.00
2013-9-17,94,86,77,-100,-100,-100,0,0,100,0.00,40.00,0,-999,0,0.00
2013-9-18,80,77,76,-100,-100,-100,0,0,100,0.00,40.00,0,-999,0,0.00
2013-9-19,91,86,83,-100,-100,-100,0,0,100,0.00,40.00,0,-999,0,0.00
2013-9-20,87,83,77,-100,-100,-100,0,0,100,0.00,40.00,0,-999,0,0.00
2013-9-21,82,77,73,-100,-100,-100,0,0,100,0.00,40.00,0,-999,0,0.00
2013-9-22,87,78,69,-100,-100,-100,0,0,100,0.00,40.00,0,-999,0,0.00
2013-9-23,87,78,69,-100,-100,-100,0,0,100,0.00,40.00,0,-999,0,0.00
2013-9-24,94,84,75,-100,-100,-100,0,0,100,0.00,40.00,0,-999,0,0.00
2013-9-25,98,82,73,-100,-100,-100,0,0,100,0.00,40.00,0,-999,0,0.00
2013-9-26,94,81,71,-100,-100,-100,0,0,100,0.00,40.00,0,-999,0,0.00
2013-9-27,89,83,78,-100,-100,-100,0,0,100,0.00,40.00,0,-999,0,0.00
2013-9-28,94,86,82,-100,-100,-100,0,0,100,0.00,40.00,0,-999,0,0.00
2013-9-29,91,83,78,-100,-100,-100,0,0,100,0.00,40.00,0,-999,0,0.00
2013-9-30,89,78,73,-100,-100,-100,0,0,100,0.00,40.00,0,-999,0,0.00
2013-10-1,81,79,76,-100,-100,-100,0,0,100,0.00,40.00,0,-999,0,0.00
2013-10-2,92,82,76,-100,-100,-100,0,0,100,0.00,40.00,0,-999,0,0.00
2013-10-3,94,84,78,-100,-100,-100,0,0,100,0.00,40.00,0,-999,0,0.00
2013-10-4,94,82,75,-100,-100,-100,0,0,100,0.00,40.00,0,-999,0,0.00
2013-10-5,96,82,73,-100,-100,-100,0,0,100,0.00,40.00,0,-999,0,0.00
2013-10-6,77,69,56,-100,-100,-100,0,0,100,0.00,40.00,0,-999,0,0.00
2013-10-7,82,69,54,-100,-100,-100,0,0,100,0.00,40.00,0,-999,0,0.00
2013-10-8,89,70,55,-100,-100,-100,0,0,100,0.00,40.00,0,-999,0,0.00
2013-10-9,90,72,60,-100,-100,-100,0,0,100,0.00,40.00,0,-999,0,0.00
2013-10-10,90,76,65,-100,-100,-100,0,0,100,0.00,40.00,0,-999,0,0.00
2013-10-11,91,81,73,-100,-100,-100,0,0,100,0.00,40.00,0,-999,0,0.00
2013-10-12,91,84,77,-100,-100,-100,0,0,100,0.00,40.00,0,-999,0,0.00
2013-10-13,81,77,73,-100,-100,-100,0,0,100,0.00,40.00,0,-999,0,0.00
2013-10-14,90,81,75,-100,-100,-100,0,0,100,0.00,40.00,0,-999,0,0.00
2013-10-15,93,80,73,-100,-100,-100,0,0,100,0.00,40.00,0,-999,0,0.00
2013-10-16,76,69,63,-100,-100,-100,0,0,100,0.00,40.00,0,-999,0,0.00
2013-10-17,80,69,62,-100,-100,-100,0,0,100,0.00,40.00,0,-999,0,0.00
2013-10-18,76,69,63,-100,-100,-100,0,0,100,0.00,40.00,0,-999,0,0.00
2013-10-19,70,64,56,-100,-100,-100,0,0,100,0.00,40.00,0,-999,0,0.00
2013-10-20,82,65,50,-100,-100,-100,0,0,100,0.00,40.00,0,-999,0,0.00
2013-10-21,80,72,62,-100,-100,-100,0,0,100,0.00,40.00,0,-999,0,0.00
2013-10-22,76,67,58,-100,-100,-100,0,0,100,0.00,40.00,0,-999,0,0.00
2013-10-23,86,68,52,-100,-100,-100,0,0,100,0.00,40.00,0,-999,0,0.00
2013-10-24,87,71,55,-100,-100,-100,0,0,100,0.00,40.00,0,-999,0,0.00
2013-10-25,85,70,58,-100,-100,-100,0,0,100,0.00,40.00,0,-999,0,0.00
2013-10-26,87,72,61,-100,-100,-100,0,0,100,0.00,40.00,0,-999,0,0.00
2013-10-27,86,72,65,-100,-100,-100,0,0,100,0.00,40.00,0,-999,0,0.00
2013-10-28,88,75,65,-100,-100,-100,0,0,100,0.00,40.00,0,-999,0,0.00
2013-10-29,87,79,70,-100,-100,-100,0,0,100,0.00,40.00,0,-999,0,0.00
2013-10-30,87,81,76,-100,-100,-100,0,0,100,0.00,40.00,0,-999,0,0.00
2013-10-31,83,78,67,-100,-100,-100,0,0,100,0.00,40.00,0,-999,0,0.00
2013-11-1,85,73,61,-100,-100,-100,0,0,100,0.00,40.00,0,-999,0,0.00
2013-11-2,73,65,57,-100,-100,-100,0,0,100,0.00,40.00,0,-999,0,0.00
2013-11-3,77,59,46,-100,-100,-100,0,0,100,0.00,40.00,0,-999,0,0.00
2013-11-4,74,67,58,-100,-100,-100,0,0,100,0.00,40.00,0,-999,0,0.00
2013-11-5,80,74,71,-100,-100,-100,0,0,100,0.00,40.00,0,-999,0,0.00
2013-11-6,83,72,57,-100,-100,-100,0,0,100,0.00,40.00,0,-999,0,0.00
2013-11-7,63,56,50,-100,-100,-100,0,0,100,0.00,40.00,0,-999,0,0.00
2013-11-8,70,59,47,-100,-100,-100,0,0,100,0.00,40.00,0,-999,0,0.00
2013-11-9,76,65,54,-100,-100,-100,0,0,100,0.00,40.00,0,-999,0,0.00
2013-11-10,72,67,59,-100,-100,-100,0,0,100,0.00,40.00,0,-999,0,0.00
2013-11-11,76,66,57,-100,-100,-100,0,0,100,0.00,40.00,0,-999,0,0.00
2013-11-12,72,60,51,-100,-100,-100,0,0,100,0.00,40.00,0,-999,0,0.00
2013-11-13,55,47,40,-100,-100,-100,0,0,100,0.00,40.00,0,-999,0,0.00
2013-11-14,70,56,40,-100,-100,-100,0,0,100,0.00,40.00,0,-999,0,0.00
2013-11-15,85,69,54,-100,-100,-100,0,0,100,0.00,40.00,0,-999,0,0.00
2013-11-16,86,75,62,-100,-100,-100,0,0,100,0.00,40.00,0,-999,0,0.00
2013-11-17,86,79,73,-100,-100,-100,0,0,100,0.00,40.00,0,-999,0,0.00
2013-11-18,83,75,69,-100,-100,-100,0,0,100,0.00,40.00,0,-999,0,0.00
2013-11-19,71,65,59,-100,-100,-100,0,0,100,0.00,40.00,0,-999,0,0.00
2013-11-20,80,71,62,-100,-100,-100,0,0,100,0.00,40.00,0,-999,0,0.00
2013-11-21,84,79,74,-100,-100,-100,0,0,100,0.00,40.00,0,-999,0,0.00
2013-11-22,76,56,41,-100,-100,-100,0,0,100,0.00,40.00,0,-999,0,0.00
2013-11-23,48,44,40,-100,-100,-100,0,0,100,0.00,40.00,0,-999,0,0.00
2013-11-24,47,45,41,-100,-100,-100,0,0,100,0.00,40.00,0,-999,0,0.00
2013-11-25,43,41,40,-100,-100,-100,0,0,100,0.00,40.00,0,-999,0,0.00
2013-11-26,47,42,39,-100,-100,-100,0,0,100,0.00,40.00,0,-999,0,0.00
2013-11-27,51,42,37,-100,-100,-100,0,0,100,0.00,40.00,0,-999,0,0.00
2013-11-28,62,43,34,-100,-100,-100,0,0,100,0.00,40.00,0,-999,0,0.00
2013-11-29,64,52,43,-100,-100,-100,0,0,100,0.00,40.00,0,-999,0,0.00
2013-11-30,76,57,44,-100,-100,-100,0,0,100,0.00,40.00,0,-999,0,0.00
2013-12-1,79,64,54,-100,-100,-100,0,0,100,0.00,40.00,0,-999,0,0.00
2013-12-2,80,67,62,-100,-100,-100,0,0,100,0.00,40.00,0,-999,0,0.00
2013-12-3,82,69,60,-100,-100,-100,0,0,100,0.00,40.00,0,-999,0,0.00
2013-12-4,80,73,69,-100,-100,-100,0,0,100,0.00,40.00,0,-999,0,0.00
2013-12-5,75,57,39,-100,-100,-100,0,0,100,0.00,40.00,0,-999,0,0.00
2013-12-6,42,37,33,-100,-100,-100,0,0,100,0.00,40.00,0,-999,0,0.00
2013-12-7,33,32,31,-100,-100,-100,0,0,100,0.00,40.00,0,-999,0,0.00
2013-12-8,47,41,32,-100,-100,-100,0,0,100,0.00,40.00,0,-999,0,0.00
2013-12-9,49,46,40,-100,-100,-100,0,0,100,0.00,40.00,0,-999,0,0.00
2013-12-10,47,39,32,-100,-100,-100,0,0,100,0.00,40.00,0,-999,0,0.00
2013-12-11,54,47,41,-100,-100,-100,0,0,100,0.00,40.00,0,-999,0,0.00
2013-12-12,52,45,40,-100,-100,-100,0,0,100,0.00,40.00,0,-999,0,0.00
2013-12-13,69,54,42,-100,-100,-100,0,0,100,0.00,40.00,0,-999,0,0.00
2013-12-14,63,54,41,-100,-100,-100,0,0,100,0.00,40.00,0,-999,0,0.00
2013-12-15,58,41,34,-100,-100,-100,0,0,100,0.00,40.00,0,-999,0,0.00
2013-12-16,67,53,32,-100,-100,-100,0,0,100,0.00,40.00,0,-999,0,0.00
2013-12-17,74,53,36,-100,-100,-100,0,0,100,0.00,40.00,0,-999,0,0.00
2013-12-18,75,55,40,-100,-100,-100,0,0,100,0.00,40.00,0,-999,0,0.00
2013-12-19,79,69,54,-100,-100,-100,0,0,100,0.00,40.00,0,-999,0,0.00
2013-12-20,77,72,67,-100,-100,-100,0,0,100,0.00,40.00,0,-999,0,0.00
2013-12-21,76,69,56,-100,-100,-100,0,0,100,0.00,40.00,0,-999,0,0.00
2013-12-22,68,57,42,-100,-100,-100,0,0,100,0.00,40.00,0,-999,0,0.00
2013-12-23,56,42,35,-100,-100,-100,0,0,100,0.00,40.00,0,-999,0,0.00
2013-12-24,64,43,31,-100,-100,-100,0,0,100,0.00,40.00,0,-999,0,0.00
2013-12-25,64,54,43,-100,-100,-100,0,0,100,0.00,40.00,0,-999,0,0.00
2013-12-26,57,53,51,-100,-100,-100,0,0,100,0.00,40.00,0,-999,0,0.00
2013-12-27,58,52,47,-100,-100,-100,0,0,100,0.00,40.00,0,-999,0,0.00
2013-12-28,60,50,43,-100,-100,-100,0,0,100,0.00,40.00,0,-999,0,0.00
2013-12-29,73,56,39,-100,-100,-100,0,0,100,0.00,40.00,0,-999,0,0.00
2013-12-30,43,41,37,-100,-100,-100,0,0,100,0.00,40.00,0,-999,0,0.00
2013-12-31,52,45,39,-100,-100,-100,0,0,100,0.00,40.00,0,-999,0,0.00
2014-1-1,67,56,46,-100,-100,-100,0,0,100,0.00,40.00,0,-999,0,0.00
2014-1-2,59,48,38,-100,-100,-100,0,0,100,0.00,40.00,0,-999,0,0.00